Carol Stream, Illinois
Current Conditions -  °F | °C
As of 8:52 AM on Thursday 23 Oct 2014 (Local Time) from KDPA Reporting Station
Haze Haze  
Wind Chill: 38°   Ceiling: Unl
Heat Index: 42°   Visibility: 6mi
Dew Point: 38°   Wind: 6mph
Humidity: 85%   Direction: 170°S
Pressure: 30.21"   Gusts: NA
Location:  41.92°N, 88.12°W
Report Text: KDPA 231352Z 17005KT 6SM BR CLR 06/03 A3021 RMK AO2 SLP235 T00560033
Loading
Personal Weather Stations






























Interactive Weather Map
Tropical Storm Tracking
New forecast layout! Learn more

10-Day Weather Forecast

Advertisements
Track Severe Weather on mobile